createdAt,value
2019-04-07T00:00:01.274Z,8.11
2019-04-07T00:01:01.266Z,8.14
2019-04-07T00:02:01.306Z,8.18
2019-04-07T00:03:01.416Z,8.13
2019-04-07T00:04:05.437Z,8.11
2019-04-07T00:05:15.057Z,8.12
2019-04-07T00:06:01.469Z,8.13
2019-04-07T00:07:01.486Z,8.07
2019-04-07T00:08:01.874Z,8.09
2019-04-07T00:09:01.881Z,8.06
2019-04-07T00:10:01.971Z,8.06
2019-04-07T00:11:01.564Z,8.04
2019-04-07T00:12:01.290Z,8.04
2019-04-07T00:13:01.351Z,8.03
2019-04-07T00:14:01.274Z,8.04
2019-04-07T00:15:01.284Z,8.01
2019-04-07T00:16:02.183Z,8.04
2019-04-07T00:17:01.989Z,8.01
2019-04-07T00:18:01.220Z,8.02
2019-04-07T00:19:01.794Z,8
2019-04-07T00:20:01.306Z,8.01
2019-04-07T00:21:01.707Z,7.98
2019-04-07T00:22:01.228Z,8.03
2019-04-07T00:23:01.258Z,8.02
2019-04-07T00:24:02.650Z,8.02
2019-04-07T00:25:02.726Z,8.13
2019-04-07T00:26:02.413Z,8.13
2019-04-07T00:27:01.550Z,8.12
2019-04-07T00:28:01.246Z,8.12
2019-04-07T00:29:01.874Z,8.09
2019-04-07T00:30:02.326Z,8.08
2019-04-07T00:31:02.656Z,8.09
2019-04-07T00:32:01.268Z,8.11
2019-04-07T00:33:02.030Z,8.09
2019-04-07T00:34:01.789Z,8.13
2019-04-07T00:35:01.235Z,8.11
2019-04-07T00:36:01.237Z,8.12
2019-04-07T00:37:01.294Z,8.05
2019-04-07T00:38:02.385Z,8.08
2019-04-07T00:39:01.760Z,8.07
2019-04-07T00:40:01.254Z,7.99
2019-04-07T00:41:01.611Z,8.08
2019-04-07T00:42:02.002Z,8.04
2019-04-07T00:43:01.212Z,7.99
2019-04-07T00:44:01.769Z,8.03
2019-04-07T00:45:02.968Z,7.99
2019-04-07T00:46:01.520Z,7.99
2019-04-07T00:47:01.183Z,7.99
2019-04-07T00:48:01.539Z,7.99
2019-04-07T00:49:03.098Z,7.94
2019-04-07T00:50:01.657Z,7.95
2019-04-07T00:51:01.659Z,7.91
2019-04-07T00:52:01.401Z,7.91
2019-04-07T00:53:01.448Z,7.9
2019-04-07T00:54:02.371Z,7.92
2019-04-07T00:55:02.425Z,7.92
2019-04-07T00:56:01.452Z,7.92
2019-04-07T00:57:01.206Z,7.9
2019-04-07T00:58:01.252Z,8
2019-04-07T00:59:02.981Z,7.96
2019-04-07T01:00:01.924Z,7.94
2019-04-07T01:01:01.189Z,7.89
2019-04-07T01:02:01.621Z,7.87
2019-04-07T01:03:02.102Z,7.85
2019-04-07T01:04:01.309Z,7.85
2019-04-07T01:05:02.698Z,7.84
2019-04-07T01:06:01.348Z,7.84
2019-04-07T01:07:01.182Z,7.83
2019-04-07T01:08:01.914Z,7.85
2019-04-07T01:09:01.955Z,7.84
2019-04-07T01:10:03.712Z,7.82
2019-04-07T01:11:01.522Z,7.82
2019-04-07T01:12:01.309Z,7.84
2019-04-07T01:13:01.213Z,7.87
2019-04-07T01:14:01.747Z,7.86
2019-04-07T01:15:01.187Z,7.82
2019-04-07T01:16:01.535Z,7.8
2019-04-07T01:17:01.212Z,7.79
2019-04-07T01:18:01.293Z,7.78
2019-04-07T01:19:01.143Z,7.78
2019-04-07T01:20:01.335Z,7.78
2019-04-07T01:21:02.412Z,7.74
2019-04-07T01:22:01.327Z,7.74
2019-04-07T01:23:03.044Z,7.73
2019-04-07T01:24:01.200Z,7.74
2019-04-07T01:25:01.239Z,7.72
2019-04-07T01:26:01.178Z,7.71
2019-04-07T01:27:01.146Z,7.71
2019-04-07T01:28:01.151Z,7.72
2019-04-07T01:29:01.652Z,7.73
2019-04-07T01:30:02.841Z,7.71
2019-04-07T01:31:01.178Z,7.73
2019-04-07T01:32:01.159Z,7.77
2019-04-07T01:33:01.146Z,7.74
2019-04-07T01:34:01.197Z,7.71
2019-04-07T01:35:01.480Z,7.69
2019-04-07T01:36:01.160Z,7.69
2019-04-07T01:37:01.230Z,7.74
2019-04-07T01:38:03.743Z,7.67
2019-04-07T01:39:01.713Z,7.65
2019-04-07T01:40:03.275Z,7.69
2019-04-07T01:41:01.161Z,7.69
2019-04-07T01:42:01.838Z,7.66
2019-04-07T01:43:01.238Z,7.61
2019-04-07T01:44:01.168Z,7.65
2019-04-07T01:45:01.797Z,7.63
2019-04-07T01:46:02.135Z,7.59
2019-04-07T01:47:01.544Z,7.58
2019-04-07T01:48:01.258Z,7.59
2019-04-07T01:49:01.225Z,7.59
2019-04-07T01:50:01.127Z,7.59
2019-04-07T01:51:01.643Z,7.56
2019-04-07T01:52:01.855Z,7.62
2019-04-07T01:53:01.141Z,7.64
2019-04-07T01:54:01.097Z,7.66
2019-04-07T01:55:01.165Z,7.6
2019-04-07T01:56:01.960Z,7.57
2019-04-07T01:57:01.571Z,7.54
2019-04-07T01:58:01.144Z,7.57
2019-04-07T01:59:01.752Z,7.56
2019-04-07T02:00:02.137Z,7.54
2019-04-07T02:01:01.122Z,7.56
2019-04-07T02:02:02.267Z,7.53
2019-04-07T02:03:01.166Z,7.52
2019-04-07T02:04:01.913Z,7.56
2019-04-07T02:05:01.102Z,7.54
2019-04-07T02:06:07.020Z,7.53
2019-04-07T02:07:01.943Z,7.53
2019-04-07T02:08:01.495Z,7.5
2019-04-07T02:09:02.052Z,7.5
2019-04-07T02:10:01.129Z,7.52
2019-04-07T02:11:01.491Z,7.5
2019-04-07T02:12:03.580Z,7.54
2019-04-07T02:13:02.048Z,7.55
2019-04-07T02:14:01.160Z,7.56
2019-04-07T02:15:01.175Z,7.54
2019-04-07T02:16:01.066Z,7.53
2019-04-07T02:17:01.946Z,7.48
2019-04-07T02:18:01.084Z,7.52
2019-04-07T02:19:01.958Z,7.52
2019-04-07T02:20:01.509Z,7.52
2019-04-07T02:21:01.047Z,7.48
2019-04-07T02:22:01.088Z,7.48
2019-04-07T02:23:01.064Z,7.46
2019-04-07T02:24:03.856Z,7.43
2019-04-07T02:25:01.939Z,7.45
2019-04-07T02:26:01.089Z,7.45
2019-04-07T02:27:01.098Z,7.44
2019-04-07T02:28:01.302Z,7.46
2019-04-07T02:29:01.748Z,7.43
2019-04-07T02:30:01.073Z,7.42
2019-04-07T02:31:01.198Z,7.41
2019-04-07T02:32:01.766Z,7.38
2019-04-07T02:33:02.493Z,7.41
2019-04-07T02:34:01.077Z,7.41
2019-04-07T02:35:02.015Z,7.41
2019-04-07T02:36:32.152Z,7.4
2019-04-07T02:37:01.105Z,7.37
2019-04-07T02:38:02.488Z,7.36
2019-04-07T02:39:01.278Z,7.39
2019-04-07T02:40:06.317Z,7.37
2019-04-07T02:41:02.128Z,7.4
2019-04-07T02:42:01.132Z,7.43
2019-04-07T02:43:03.404Z,7.42
2019-04-07T02:44:03.056Z,7.39
2019-04-07T02:45:01.755Z,7.41
2019-04-07T02:46:01.096Z,7.41
2019-04-07T02:47:01.086Z,7.39
2019-04-07T02:48:01.573Z,7.4
2019-04-07T02:49:02.079Z,7.38
2019-04-07T02:50:03.715Z,7.41
2019-04-07T02:51:01.502Z,7.42
2019-04-07T02:52:01.067Z,7.42
2019-04-07T02:53:03.181Z,7.37
2019-04-07T02:54:01.056Z,7.34
2019-04-07T02:55:02.836Z,7.34
2019-04-07T02:56:03.580Z,7.32
2019-04-07T02:57:01.041Z,7.33
2019-04-07T02:58:03.126Z,7.35
2019-04-07T02:59:02.082Z,7.32
2019-04-07T03:00:01.429Z,7.29
2019-04-07T03:01:02.275Z,7.29
2019-04-07T03:02:01.318Z,7.27
2019-04-07T03:03:01.919Z,7.31
2019-04-07T03:04:05.250Z,7.35
2019-04-07T03:05:02.550Z,7.35
2019-04-07T03:06:02.248Z,7.36
2019-04-07T03:07:01.090Z,7.4
2019-04-07T03:08:01.890Z,7.44
2019-04-07T03:09:01.021Z,7.38
2019-04-07T03:10:01.109Z,7.37
2019-04-07T03:11:02.333Z,7.37
2019-04-07T03:12:05.364Z,7.36
2019-04-07T03:13:01.338Z,7.36
2019-04-07T03:14:01.022Z,7.35
2019-04-07T03:15:01.038Z,7.37
2019-04-07T03:16:02.342Z,7.39
2019-04-07T03:17:02.619Z,7.4
2019-04-07T03:18:01.134Z,7.43
2019-04-07T03:19:02.090Z,7.4
2019-04-07T03:20:01.056Z,7.42
2019-04-07T03:21:02.616Z,7.42
2019-04-07T03:22:01.379Z,7.4
2019-04-07T03:23:02.453Z,7.4
2019-04-07T03:24:01.023Z,7.4
2019-04-07T03:25:00.994Z,7.38
2019-04-07T03:26:02.482Z,7.37
2019-04-07T03:27:01.160Z,7.34
2019-04-07T03:28:01.732Z,7.35
2019-04-07T03:29:01.554Z,7.33
2019-04-07T03:30:06.263Z,7.34
2019-04-07T03:31:07.912Z,7.3
2019-04-07T03:32:16.895Z,7.29
2019-04-07T03:33:21.691Z,7.26
2019-04-07T03:34:06.777Z,7.27
2019-04-07T03:35:07.604Z,7.23
2019-04-07T03:36:20.640Z,7.24
2019-04-07T03:38:02.202Z,7.24
2019-04-07T03:39:03.678Z,7.23
2019-04-07T03:40:04.937Z,7.26
2019-04-07T03:41:00.993Z,7.26
2019-04-07T03:42:01.346Z,7.25
2019-04-07T03:43:01.842Z,7.27
2019-04-07T03:44:01.589Z,7.29
2019-04-07T03:45:01.433Z,7.3
2019-04-07T03:46:01.223Z,7.32
2019-04-07T03:47:01.785Z,7.32
2019-04-07T03:48:02.459Z,7.32
2019-04-07T03:49:02.179Z,7.32
2019-04-07T03:50:04.195Z,7.31
2019-04-07T03:51:01.782Z,7.32
2019-04-07T03:52:05.884Z,7.34
2019-04-07T03:53:03.154Z,7.33
2019-04-07T03:54:01.009Z,7.34
2019-04-07T03:55:01.622Z,7.35
2019-04-07T03:56:02.059Z,7.35
2019-04-07T03:57:01.065Z,7.34
2019-04-07T03:58:01.875Z,7.34
2019-04-07T03:59:01.089Z,7.35
2019-04-07T04:00:02.609Z,7.37
2019-04-07T04:01:01.040Z,7.36
2019-04-07T04:02:01.140Z,7.38
2019-04-07T04:03:00.945Z,7.37
2019-04-07T04:04:02.485Z,7.38
2019-04-07T04:05:01.137Z,7.36
2019-04-07T04:06:00.987Z,7.34
2019-04-07T04:07:38.488Z,7.36
2019-04-07T04:08:02.306Z,7.37
2019-04-07T04:09:02.356Z,7.36
2019-04-07T04:10:01.436Z,7.36
2019-04-07T04:11:02.912Z,7.36
2019-04-07T04:12:01.622Z,7.36
2019-04-07T04:13:01.237Z,7.37
2019-04-07T04:14:03.111Z,7.37
2019-04-07T04:15:03.840Z,7.37
2019-04-07T04:16:01.243Z,7.37
2019-04-07T04:17:02.345Z,7.39
2019-04-07T04:18:01.415Z,7.37
2019-04-07T04:19:00.981Z,7.38
2019-04-07T04:20:00.949Z,7.39
2019-04-07T04:21:01.723Z,7.39
2019-04-07T04:22:02.391Z,7.4
2019-04-07T04:23:01.038Z,7.4
2019-04-07T04:24:00.996Z,7.4
2019-04-07T04:25:01.517Z,7.4
2019-04-07T04:26:02.696Z,7.41
2019-04-07T04:27:01.423Z,7.4
2019-04-07T04:28:01.635Z,7.38
2019-04-07T04:29:04.208Z,7.41
2019-04-07T04:30:01.196Z,7.41
2019-04-07T04:31:01.045Z,7.39
2019-04-07T04:32:01.927Z,7.4
2019-04-07T04:33:02.500Z,7.41
2019-04-07T04:34:02.060Z,7.38
2019-04-07T04:35:01.457Z,7.38
2019-04-07T04:36:00.909Z,7.37
2019-04-07T04:37:02.031Z,7.36
2019-04-07T04:38:02.303Z,7.41
2019-04-07T04:39:00.988Z,7.4
2019-04-07T04:40:04.006Z,7.39
2019-04-07T04:41:03.192Z,7.4
2019-04-07T04:42:01.186Z,7.41
2019-04-07T04:43:03.023Z,7.4
2019-04-07T04:44:00.908Z,7.38
2019-04-07T04:45:02.817Z,7.37
2019-04-07T04:46:01.665Z,7.39
2019-04-07T04:47:03.049Z,7.4
2019-04-07T04:48:00.893Z,7.39
2019-04-07T04:49:00.912Z,7.4
2019-04-07T04:50:03.734Z,7.38
2019-04-07T04:51:00.964Z,7.43
2019-04-07T04:52:01.019Z,7.42
2019-04-07T04:53:01.722Z,7.4
2019-04-07T04:54:02.096Z,7.41
2019-04-07T04:55:02.327Z,7.43
2019-04-07T04:56:01.295Z,7.4
2019-04-07T04:57:09.629Z,7.39
2019-04-07T04:58:00.903Z,7.38
2019-04-07T04:59:01.113Z,7.4
2019-04-07T05:00:02.464Z,7.41
2019-04-07T05:01:04.640Z,7.38
2019-04-07T05:02:01.366Z,7.39
2019-04-07T05:03:01.229Z,7.41
2019-04-07T05:04:01.034Z,7.41
2019-04-07T05:05:04.146Z,7.38
2019-04-07T05:06:03.917Z,7.37
2019-04-07T05:07:01.697Z,7.36
2019-04-07T05:08:06.989Z,7.36
2019-04-07T05:09:02.332Z,7.4
2019-04-07T05:10:01.827Z,7.36
2019-04-07T05:11:01.931Z,7.35
2019-04-07T05:12:00.913Z,7.37
2019-04-07T05:13:01.644Z,7.4
2019-04-07T05:14:01.014Z,7.41
2019-04-07T05:15:01.955Z,7.39
2019-04-07T05:16:01.322Z,7.37
2019-04-07T05:17:01.334Z,7.39
2019-04-07T05:18:01.878Z,7.38
2019-04-07T05:19:00.950Z,7.4
2019-04-07T05:20:01.363Z,7.37
2019-04-07T05:21:00.967Z,7.38
2019-04-07T05:22:02.422Z,7.4
2019-04-07T05:23:01.794Z,7.4
2019-04-07T05:24:01.582Z,7.39
2019-04-07T05:25:01.102Z,7.39
2019-04-07T05:26:00.896Z,7.38
2019-04-07T05:27:01.194Z,7.4
2019-04-07T05:28:01.390Z,7.39
2019-04-07T05:29:01.576Z,7.4
2019-04-07T05:30:01.631Z,7.43
2019-04-07T05:31:00.859Z,7.44
2019-04-07T05:32:01.924Z,7.45
2019-04-07T05:33:01.119Z,7.44
2019-04-07T05:34:00.964Z,7.43
2019-04-07T05:35:01.248Z,7.44
2019-04-07T05:36:00.997Z,7.44
2019-04-07T05:37:02.419Z,7.47
2019-04-07T05:38:09.471Z,7.48
2019-04-07T05:39:01.171Z,7.48
2019-04-07T05:40:04.934Z,7.45
2019-04-07T05:41:00.831Z,7.49
2019-04-07T05:42:01.529Z,7.47
2019-04-07T05:43:02.179Z,7.47
2019-04-07T05:44:01.534Z,7.49
2019-04-07T05:45:00.928Z,7.49
2019-04-07T05:46:01.598Z,7.52
2019-04-07T05:47:01.743Z,7.52
2019-04-07T05:48:00.861Z,7.51
2019-04-07T05:49:00.970Z,7.48
2019-04-07T05:50:06.409Z,7.5
2019-04-07T05:51:01.354Z,7.5
2019-04-07T05:52:06.947Z,7.52
2019-04-07T05:53:00.766Z,7.53
2019-04-07T05:54:01.480Z,7.52
2019-04-07T05:55:01.509Z,7.55
2019-04-07T05:56:01.286Z,7.53
2019-04-07T05:57:02.811Z,7.52
2019-04-07T05:58:08.648Z,7.55
2019-04-07T05:59:02.016Z,7.52
2019-04-07T06:00:01.696Z,7.56
2019-04-07T06:01:00.777Z,7.56
2019-04-07T06:02:04.356Z,7.54
2019-04-07T06:03:09.606Z,7.55
2019-04-07T06:04:02.745Z,7.57
2019-04-07T06:05:01.433Z,7.58
2019-04-07T06:06:00.894Z,7.57
2019-04-07T06:07:00.866Z,7.59
2019-04-07T06:09:00.861Z,7.58
2019-04-07T06:10:01.302Z,7.63
2019-04-07T06:11:02.666Z,7.6
2019-04-07T06:12:10.849Z,7.58
2019-04-07T06:13:00.775Z,7.62
2019-04-07T06:14:01.081Z,7.6
2019-04-07T06:15:00.779Z,7.66
2019-04-07T06:16:00.798Z,7.69
2019-04-07T06:17:01.120Z,7.69
2019-04-07T06:18:02.752Z,7.72
2019-04-07T06:19:09.112Z,7.72
2019-04-07T06:20:02.461Z,7.72
2019-04-07T06:21:01.169Z,7.69
2019-04-07T06:22:02.482Z,7.65
2019-04-07T06:23:00.755Z,7.65
2019-04-07T06:24:00.980Z,7.67
2019-04-07T06:25:07.315Z,7.67
2019-04-07T06:26:00.839Z,7.69
2019-04-07T06:27:01.074Z,7.72
2019-04-07T06:28:00.731Z,7.7
2019-04-07T06:29:02.624Z,7.68
2019-04-07T06:30:01.139Z,7.68
2019-04-07T06:31:03.435Z,7.7
2019-04-07T06:32:11.324Z,7.69
2019-04-07T06:33:02.621Z,7.69
2019-04-07T06:34:00.855Z,7.67
2019-04-07T06:35:02.819Z,7.69
2019-04-07T06:36:00.740Z,7.69
2019-04-07T06:37:00.834Z,7.72
2019-04-07T06:38:09.116Z,7.73
2019-04-07T06:39:01.668Z,7.73
2019-04-07T06:40:01.491Z,7.74
2019-04-07T06:41:03.578Z,7.73
2019-04-07T06:42:03.647Z,7.73
2019-04-07T06:43:07.581Z,7.74
2019-04-07T06:44:24.206Z,7.74
2019-04-07T06:45:01.976Z,7.76
2019-04-07T06:46:00.678Z,7.78
2019-04-07T06:47:04.867Z,7.78
2019-04-07T06:48:10.411Z,7.79
2019-04-07T06:49:02.577Z,7.78
2019-04-07T06:50:00.855Z,7.83
2019-04-07T06:51:04.008Z,7.85
2019-04-07T06:52:05.056Z,7.85
2019-04-07T06:53:00.815Z,7.83
2019-04-07T06:54:02.485Z,7.86
2019-04-07T06:55:00.699Z,7.88
2019-04-07T06:56:06.157Z,7.87
2019-04-07T06:57:07.529Z,7.88
2019-04-07T06:58:02.254Z,7.89
2019-04-07T06:59:00.856Z,7.89
2019-04-07T07:00:01.222Z,7.9
2019-04-07T07:01:03.589Z,7.89
2019-04-07T07:02:00.894Z,7.91
2019-04-07T07:03:04.572Z,7.88
2019-04-07T07:04:02.001Z,7.87
2019-04-07T07:05:00.685Z,7.88
2019-04-07T07:06:01.534Z,7.86
2019-04-07T07:07:01.218Z,7.86
2019-04-07T07:08:01.075Z,7.85
2019-04-07T07:09:02.077Z,7.86
2019-04-07T07:10:06.735Z,7.87
2019-04-07T07:11:01.179Z,7.87
2019-04-07T07:12:01.832Z,7.92
2019-04-07T07:13:35.484Z,7.96
2019-04-07T07:14:00.739Z,7.95
2019-04-07T07:15:04.832Z,7.97
2019-04-07T07:16:11.489Z,7.96
2019-04-07T07:17:00.687Z,7.94
2019-04-07T07:18:00.713Z,7.92
2019-04-07T07:19:02.626Z,7.94
2019-04-07T07:20:06.930Z,7.94
2019-04-07T07:21:05.229Z,7.94
2019-04-07T07:22:02.145Z,7.96
2019-04-07T07:23:00.920Z,7.95
2019-04-07T07:24:01.467Z,7.94
2019-04-07T07:25:01.626Z,7.95
2019-04-07T07:26:04.428Z,7.95
2019-04-07T07:27:12.406Z,7.96
2019-04-07T07:28:01.814Z,7.95
2019-04-07T07:29:01.089Z,7.95
2019-04-07T07:30:01.440Z,7.94
2019-04-07T07:31:01.145Z,7.93
2019-04-07T07:32:05.105Z,7.9
2019-04-07T07:33:00.890Z,7.9
2019-04-07T07:34:00.704Z,7.91
2019-04-07T07:35:00.672Z,7.93
2019-04-07T07:36:01.476Z,7.95
2019-04-07T07:37:00.701Z,7.97
2019-04-07T07:38:00.628Z,7.95
2019-04-07T07:39:14.652Z,7.95
2019-04-07T07:40:09.887Z,7.94
2019-04-07T07:41:04.967Z,7.96
2019-04-07T07:42:00.632Z,7.97
2019-04-07T07:43:00.695Z,7.96
2019-04-07T07:44:09.902Z,7.97
2019-04-07T07:45:01.673Z,8
2019-04-07T07:46:00.636Z,8
2019-04-07T07:47:00.712Z,8
2019-04-07T07:48:01.148Z,7.9
2019-04-07T07:49:02.371Z,7.96
2019-04-07T07:50:09.049Z,7.95
2019-04-07T07:51:02.495Z,7.94
2019-04-07T07:52:01.577Z,7.94
2019-04-07T07:53:01.563Z,7.96
2019-04-07T07:54:02.288Z,7.96
2019-04-07T07:55:04.067Z,7.91
2019-04-07T07:56:03.079Z,7.93
2019-04-07T07:57:02.574Z,7.89
2019-04-07T07:58:01.276Z,7.87
2019-04-07T07:59:04.713Z,7.77
2019-04-07T08:00:08.567Z,7.78
2019-04-07T08:01:01.631Z,7.81
2019-04-07T08:02:03.747Z,7.77
2019-04-07T08:03:00.856Z,7.99
2019-04-07T08:04:00.967Z,7.96
2019-04-07T08:05:00.811Z,7.94
2019-04-07T08:06:08.578Z,7.95
2019-04-07T08:07:02.866Z,7.89
2019-04-07T08:08:01.948Z,7.86
2019-04-07T08:09:26.453Z,7.84
2019-04-07T08:10:03.201Z,7.88
2019-04-07T08:11:02.978Z,7.85
2019-04-07T08:12:03.960Z,7.82
2019-04-07T08:13:09.151Z,7.77
2019-04-07T08:14:01.394Z,7.84
2019-04-07T08:15:00.626Z,7.79
2019-04-07T08:16:00.694Z,7.73
2019-04-07T08:17:04.265Z,7.75
2019-04-07T08:18:09.864Z,7.79
2019-04-07T08:19:01.683Z,7.87
2019-04-07T08:20:02.490Z,7.85
2019-04-07T08:21:00.587Z,7.88
2019-04-07T08:22:01.899Z,7.83
2019-04-07T08:23:00.877Z,7.83
2019-04-07T08:24:01.589Z,7.78
2019-04-07T08:25:02.557Z,7.77
2019-04-07T08:26:00.669Z,7.79
2019-04-07T08:27:00.583Z,7.93
2019-04-07T08:28:04.991Z,7.99
2019-04-07T08:29:13.858Z,7.89
2019-04-07T08:30:13.482Z,7.78
2019-04-07T08:31:01.027Z,7.96
2019-04-07T08:32:00.843Z,8.04
2019-04-07T08:33:03.743Z,8.03
2019-04-07T08:34:03.852Z,7.98
2019-04-07T08:35:07.944Z,7.94
2019-04-07T08:36:00.912Z,7.87
2019-04-07T08:37:01.521Z,7.93
2019-04-07T08:38:03.427Z,8.01
2019-04-07T08:39:01.021Z,8.06
2019-04-07T08:40:09.277Z,7.99
2019-04-07T08:41:15.408Z,7.89
2019-04-07T08:42:01.495Z,7.98
2019-04-07T08:43:01.342Z,8.09
2019-04-07T08:44:00.634Z,7.82
2019-04-07T08:45:03.605Z,7.95
2019-04-07T08:46:06.425Z,7.97
2019-04-07T08:47:02.702Z,7.94
2019-04-07T08:48:00.989Z,8.03
2019-04-07T08:49:00.601Z,8.12
2019-04-07T08:50:00.556Z,8.11
2019-04-07T08:51:01.279Z,7.97
2019-04-07T08:52:12.906Z,7.83
2019-04-07T08:53:00.531Z,7.96
2019-04-07T08:54:00.583Z,7.92
2019-04-07T08:55:00.566Z,8.01
2019-04-07T08:56:00.628Z,7.96
2019-04-07T08:57:00.786Z,7.97
2019-04-07T08:58:06.780Z,7.89
2019-04-07T08:59:00.520Z,7.98
2019-04-07T09:00:00.647Z,8
2019-04-07T09:01:00.553Z,7.97
2019-04-07T09:02:00.613Z,7.94
2019-04-07T09:03:17.219Z,7.89
2019-04-07T09:04:01.602Z,7.99
2019-04-07T09:05:02.874Z,8.03
2019-04-07T09:06:01.254Z,8.08
2019-04-07T09:07:05.302Z,8.08
2019-04-07T09:08:07.675Z,8.09
2019-04-07T09:09:00.665Z,8.17
2019-04-07T09:10:01.262Z,8.13
2019-04-07T09:11:00.627Z,8.06
2019-04-07T09:12:01.670Z,8.12
2019-04-07T09:13:10.520Z,8.12
2019-04-07T09:14:00.545Z,8.06
2019-04-07T09:15:13.094Z,8.07
2019-04-07T09:16:00.500Z,8.03
2019-04-07T09:17:00.564Z,8.05
2019-04-07T09:18:01.113Z,8.02
2019-04-07T09:19:09.640Z,8.21
2019-04-07T09:20:10.910Z,8.24
2019-04-07T09:21:01.014Z,8.05
2019-04-07T09:22:00.821Z,8.12
2019-04-07T09:23:00.745Z,8.24
2019-04-07T09:24:00.687Z,8.06
2019-04-07T09:25:10.916Z,8.04
2019-04-07T09:26:00.491Z,7.94
2019-04-07T09:27:01.290Z,7.82
2019-04-07T09:28:01.911Z,7.94
2019-04-07T09:29:01.202Z,8.01
2019-04-07T09:30:07.820Z,8.12
2019-04-07T09:31:04.797Z,7.87
2019-04-07T09:32:00.542Z,7.84
2019-04-07T09:33:01.514Z,7.97
2019-04-07T09:34:01.487Z,7.96
2019-04-07T09:35:00.846Z,7.9
2019-04-07T09:36:00.851Z,7.96
2019-04-07T09:37:00.618Z,8.04
2019-04-07T09:38:00.606Z,8.19
2019-04-07T09:39:04.338Z,8.25
2019-04-07T09:40:06.934Z,8.21
2019-04-07T09:41:01.613Z,8.15
2019-04-07T09:42:01.117Z,8.17
2019-04-07T09:43:01.502Z,8.24
2019-04-07T09:44:05.349Z,8.05
2019-04-07T09:45:00.636Z,8
2019-04-07T09:46:00.499Z,8.06
2019-04-07T09:47:00.993Z,8.09
2019-04-07T09:48:00.793Z,8.2
2019-04-07T09:49:02.202Z,8.36
2019-04-07T09:50:03.703Z,8.44
2019-04-07T09:51:08.764Z,8.45
2019-04-07T09:52:01.239Z,8.49
2019-04-07T09:53:01.374Z,8.55
2019-04-07T09:54:00.514Z,8.46
2019-04-07T09:55:01.595Z,8.41
2019-04-07T09:56:03.884Z,8.41
2019-04-07T09:57:07.536Z,8.38
2019-04-07T09:58:01.542Z,8.32
2019-04-07T09:59:00.489Z,8.34
2019-04-07T10:00:01.735Z,8.39
2019-04-07T10:01:00.477Z,8.52
2019-04-07T10:02:06.830Z,8.35
2019-04-07T10:03:16.420Z,8.42
2019-04-07T10:04:00.463Z,8.49
2019-04-07T10:05:00.471Z,8.48
2019-04-07T10:06:00.960Z,8.57
2019-04-07T10:07:04.729Z,8.62
2019-04-07T10:08:00.543Z,8.71
2019-04-07T10:09:02.246Z,8.62
2019-04-07T10:10:16.089Z,8.61
2019-04-07T10:11:00.864Z,8.54
2019-04-07T10:12:00.567Z,8.53
2019-04-07T10:13:00.890Z,8.46
2019-04-07T10:14:02.370Z,8.26
2019-04-07T10:15:00.478Z,8.21
2019-04-07T10:16:01.196Z,8.25
2019-04-07T10:17:01.321Z,8.19
2019-04-07T10:18:00.690Z,8.14
2019-04-07T10:19:00.880Z,8.23
2019-04-07T10:20:02.229Z,8.3
2019-04-07T10:21:01.733Z,8.47
2019-04-07T10:22:03.698Z,8.52
2019-04-07T10:23:01.892Z,8.5
2019-04-07T10:24:00.940Z,8.51
2019-04-07T10:25:00.532Z,8.46
2019-04-07T10:26:01.502Z,8.54
2019-04-07T10:27:01.580Z,8.61
2019-04-07T10:28:00.768Z,8.6
2019-04-07T10:29:00.764Z,8.6
2019-04-07T10:30:00.690Z,8.63
2019-04-07T10:31:00.410Z,8.59
2019-04-07T10:32:01.363Z,8.55
2019-04-07T10:33:03.156Z,8.62
2019-04-07T10:34:00.462Z,8.65
2019-04-07T10:35:02.332Z,8.64
2019-04-07T10:36:00.425Z,8.67
2019-04-07T10:37:05.216Z,8.7
2019-04-07T10:38:02.155Z,8.69
2019-04-07T10:39:00.980Z,8.65
2019-04-07T10:40:04.308Z,8.66
2019-04-07T10:41:02.117Z,8.61
2019-04-07T10:42:01.375Z,8.63
2019-04-07T10:43:01.567Z,8.72
2019-04-07T10:44:01.851Z,8.69
2019-04-07T10:45:00.769Z,8.65
2019-04-07T10:46:00.490Z,8.47
2019-04-07T10:47:00.600Z,8.5
2019-04-07T10:48:02.302Z,8.53
2019-04-07T10:49:01.377Z,8.51
2019-04-07T10:50:09.068Z,8.57
2019-04-07T10:51:00.429Z,8.65
2019-04-07T10:52:01.302Z,8.63
2019-04-07T10:53:00.493Z,8.67
2019-04-07T10:54:00.420Z,8.57
2019-04-07T10:55:01.336Z,8.65
2019-04-07T10:56:02.079Z,8.51
2019-04-07T10:57:01.185Z,8.52
2019-04-07T10:58:00.459Z,8.62
2019-04-07T10:59:00.454Z,8.66
2019-04-07T11:00:01.553Z,8.7
2019-04-07T11:01:01.088Z,8.69
2019-04-07T11:02:01.478Z,8.62
2019-04-07T11:03:01.020Z,8.62
2019-04-07T11:04:00.412Z,8.68
2019-04-07T11:05:00.806Z,8.66
2019-04-07T11:06:01.340Z,8.61
2019-04-07T11:07:00.380Z,8.67
2019-04-07T11:08:00.609Z,8.57
2019-04-07T11:09:00.407Z,8.67
2019-04-07T11:10:01.396Z,8.67
2019-04-07T11:11:00.395Z,8.75
2019-04-07T11:12:00.357Z,8.7
2019-04-07T11:13:01.892Z,8.7
2019-04-07T11:14:01.110Z,8.69
2019-04-07T11:15:01.139Z,8.75
2019-04-07T11:16:00.597Z,8.48
2019-04-07T11:17:02.608Z,8.46
2019-04-07T11:18:01.882Z,8.63
2019-04-07T11:19:00.399Z,8.64
2019-04-07T11:20:00.392Z,8.63
2019-04-07T11:21:02.411Z,8.67
2019-04-07T11:22:01.330Z,8.73
2019-04-07T11:23:03.058Z,8.78
2019-04-07T11:24:01.410Z,8.68
2019-04-07T11:25:01.277Z,8.6
2019-04-07T11:26:00.772Z,8.65
2019-04-07T11:27:00.403Z,8.75
2019-04-07T11:28:00.354Z,8.73
2019-04-07T11:29:00.352Z,8.73
2019-04-07T11:30:00.536Z,8.7
2019-04-07T11:31:02.344Z,8.58
2019-04-07T11:32:00.558Z,8.69
2019-04-07T11:33:01.993Z,8.6
2019-04-07T11:34:01.070Z,8.75
2019-04-07T11:35:00.367Z,8.59
2019-04-07T11:36:06.104Z,8.57
2019-04-07T11:37:00.781Z,8.78
2019-04-07T11:38:00.538Z,8.66
2019-04-07T11:39:00.728Z,8.71
2019-04-07T11:40:02.284Z,8.48
2019-04-07T11:41:00.443Z,8.57
2019-04-07T11:42:01.249Z,8.45
2019-04-07T11:43:00.695Z,8.46
2019-04-07T11:44:02.108Z,8.48
2019-04-07T11:45:00.381Z,8.59
2019-04-07T11:46:04.682Z,8.66
2019-04-07T11:47:02.305Z,8.5
2019-04-07T11:48:00.332Z,8.57
2019-04-07T11:49:01.017Z,8.63
2019-04-07T11:50:01.172Z,8.42
2019-04-07T11:51:00.308Z,8.47
2019-04-07T11:52:00.379Z,8.56
2019-04-07T11:53:01.875Z,8.47
2019-04-07T11:54:01.801Z,8.28
2019-04-07T11:55:02.470Z,8.26
2019-04-07T11:56:11.744Z,8.2
2019-04-07T11:57:01.053Z,8.31
2019-04-07T11:58:34.662Z,8.42
2019-04-07T11:59:01.453Z,8.27
2019-04-07T12:00:02.557Z,8.35
2019-04-07T12:01:00.411Z,8.5
2019-04-07T12:02:07.449Z,8.4
2019-04-07T12:03:00.997Z,8.44
2019-04-07T12:04:02.689Z,8.04
2019-04-07T12:05:00.427Z,8.28
2019-04-07T12:06:02.684Z,8.15
2019-04-07T12:07:00.401Z,8.05
2019-04-07T12:08:02.071Z,8.12
2019-04-07T12:09:00.495Z,8.01
2019-04-07T12:10:00.372Z,8.09
2019-04-07T12:11:06.803Z,8.19
2019-04-07T12:12:00.394Z,8.12
2019-04-07T12:13:00.538Z,8.02
2019-04-07T12:14:01.233Z,8.05
2019-04-07T12:15:00.412Z,8.11
2019-04-07T12:16:02.234Z,8.13
2019-04-07T12:17:13.864Z,8.12
2019-04-07T12:18:00.619Z,8.14
2019-04-07T12:19:00.560Z,8.03
2019-04-07T12:20:00.551Z,8.33
2019-04-07T12:21:08.869Z,8.47
2019-04-07T12:22:04.152Z,8.46
2019-04-07T12:23:00.561Z,8.7
2019-04-07T12:24:01.698Z,8.62
2019-04-07T12:25:06.918Z,8.54
2019-04-07T12:26:07.574Z,8.66
2019-04-07T12:27:02.162Z,8.71
2019-04-07T12:28:00.336Z,8.5
2019-04-07T12:29:01.660Z,8.54
2019-04-07T12:30:02.614Z,8.66
2019-04-07T12:31:00.296Z,8.51
2019-04-07T12:32:02.494Z,8.41
2019-04-07T12:33:00.376Z,8.52
2019-04-07T12:34:00.376Z,8.54
2019-04-07T12:35:01.278Z,8.27
2019-04-07T12:36:00.341Z,8.43
2019-04-07T12:37:08.062Z,8.28
2019-04-07T12:38:00.553Z,8.46
2019-04-07T12:39:00.311Z,8.51
2019-04-07T12:40:01.511Z,8.58
2019-04-07T12:41:24.519Z,8.5
2019-04-07T12:42:08.886Z,8.49
2019-04-07T12:43:00.596Z,8.54
2019-04-07T12:44:02.507Z,8.46
2019-04-07T12:45:00.372Z,8.54
2019-04-07T12:46:02.347Z,8.6
2019-04-07T12:47:00.320Z,8.48
2019-04-07T12:48:03.388Z,8.43
2019-04-07T12:49:00.393Z,8.28
2019-04-07T12:50:00.342Z,8.33
2019-04-07T12:51:02.061Z,8.19
2019-04-07T12:52:00.409Z,8.36
2019-04-07T12:53:08.085Z,8.23
2019-04-07T12:54:00.480Z,8.29
2019-04-07T12:55:01.930Z,8.2
2019-04-07T12:56:03.303Z,8.27
2019-04-07T12:57:10.559Z,8.4
2019-04-07T12:58:02.136Z,8.35
2019-04-07T12:59:01.578Z,8.11
2019-04-07T13:00:00.314Z,8.01
2019-04-07T13:01:21.256Z,8.24
2019-04-07T13:02:09.391Z,8.2
2019-04-07T13:03:00.314Z,8.19
2019-04-07T13:04:00.387Z,8.41
2019-04-07T13:05:08.812Z,8.36
2019-04-07T13:06:06.516Z,8.42
2019-04-07T13:07:00.262Z,8.28
2019-04-07T13:08:01.363Z,8.49
2019-04-07T13:09:01.154Z,8.44
2019-04-07T13:10:08.353Z,8.56
2019-04-07T13:11:28.128Z,8.54
2019-04-07T13:12:04.446Z,8.44
2019-04-07T13:13:00.298Z,8.24
2019-04-07T13:14:10.200Z,8.17
2019-04-07T13:15:02.303Z,7.97
2019-04-07T13:16:01.629Z,7.95
2019-04-07T13:17:03.009Z,8.07
2019-04-07T13:18:12.220Z,8.22
2019-04-07T13:19:15.399Z,8.36
2019-04-07T13:20:02.461Z,8.33
2019-04-07T13:21:05.556Z,8.49
2019-04-07T13:22:04.454Z,8.43
2019-04-07T13:23:01.705Z,8.35